createdAt,value
2022-10-23T00:01:11.203Z,12.67
2022-10-23T00:03:37.939Z,12.61
2022-10-23T00:06:05.893Z,12.62
2022-10-23T00:08:32.676Z,12.66
2022-10-23T00:10:59.679Z,12.93
2022-10-23T00:13:26.392Z,12.87
2022-10-23T00:18:19.876Z,13.08
2022-10-23T00:20:46.614Z,12.87
2022-10-23T00:23:13.354Z,12.86
2022-10-23T00:25:40.096Z,12.84
2022-10-23T00:28:06.816Z,12.75
2022-10-23T00:30:33.538Z,12.78
2022-10-23T00:33:00.241Z,12.69
2022-10-23T00:35:27.001Z,12.52
2022-10-23T00:37:53.715Z,12.59
2022-10-23T00:40:20.525Z,12.61
2022-10-23T00:42:47.259Z,12.33
2022-10-23T00:45:19.426Z,12.70
2022-10-23T00:47:46.459Z,12.48
2022-10-23T00:50:13.449Z,12.66
2022-10-23T00:52:45.649Z,12.57
2022-10-23T00:55:13.119Z,12.33
2022-10-23T00:57:42.944Z,12.31
2022-10-23T01:00:14.501Z,12.27
2022-10-23T01:02:41.647Z,12.22
2022-10-23T01:05:09.207Z,12.47
2022-10-23T01:07:56.989Z,12.57
2022-10-23T01:10:30.949Z,12.27
2022-10-23T01:13:05.377Z,12.27
2022-10-23T01:15:58.578Z,12.42
2022-10-23T01:18:32.650Z,12.44
2022-10-23T01:21:10.444Z,12.15
2022-10-23T01:24:06.678Z,12.29
2022-10-23T01:26:48.530Z,11.99
2022-10-23T01:29:19.877Z,12.27
2022-10-23T01:32:11.436Z,12.19
2022-10-23T01:34:49.711Z,11.91
2022-10-23T01:37:23.455Z,11.88
2022-10-23T01:39:55.094Z,12.10
2022-10-23T01:42:40.046Z,12.01
2022-10-23T01:45:15.895Z,12.20
2022-10-23T01:47:44.353Z,12.08
2022-10-23T01:50:14.889Z,12.07
2022-10-23T01:52:42.194Z,11.92
2022-10-23T01:55:12.504Z,11.92
2022-10-23T01:57:42.349Z,11.95
2022-10-23T02:00:13.866Z,11.97
2022-10-23T02:02:44.039Z,11.72
2022-10-23T02:05:31.361Z,11.93
2022-10-23T02:08:00.418Z,11.69
2022-10-23T02:10:39.491Z,11.62
2022-10-23T02:13:17.059Z,11.75
2022-10-23T02:15:49.899Z,11.54
2022-10-23T02:18:36.189Z,11.78
2022-10-23T02:21:12.400Z,11.95
2022-10-23T02:24:22.742Z,12.04
2022-10-23T02:26:56.470Z,11.82
2022-10-23T02:29:28.140Z,12.00
2022-10-23T02:31:55.287Z,11.70
2022-10-23T02:34:22.516Z,11.78
2022-10-23T02:36:49.569Z,11.82
2022-10-23T02:39:16.413Z,11.78
2022-10-23T02:42:10.967Z,11.94
2022-10-23T02:44:55.906Z,11.90
2022-10-23T02:47:46.207Z,11.95
2022-10-23T02:53:18.752Z,11.46
2022-10-23T02:56:10.674Z,12.05
2022-10-23T02:58:48.310Z,11.90
2022-10-23T03:01:22.554Z,12.04
2022-10-23T03:22:52.263Z,10.89
2022-10-23T03:28:03.835Z,11.70
2022-10-23T03:30:30.599Z,11.68
2022-10-23T03:32:58.586Z,11.80
2022-10-23T03:35:25.404Z,11.90
2022-10-23T03:37:53.523Z,11.69
2022-10-23T03:40:21.232Z,11.55
2022-10-23T03:42:48.684Z,11.73
2022-10-23T03:45:16.506Z,11.80
2022-10-23T03:47:43.591Z,11.58
2022-10-23T03:50:11.376Z,11.60
2022-10-23T03:52:38.221Z,11.84
2022-10-23T03:55:05.520Z,11.86
2022-10-23T03:57:32.841Z,11.71
2022-10-23T03:59:59.674Z,11.79
2022-10-23T04:02:26.679Z,11.29
2022-10-23T04:04:54.372Z,11.24
2022-10-23T04:07:21.217Z,11.53
2022-10-23T04:09:47.975Z,11.53
2022-10-23T04:12:14.844Z,11.68
2022-10-23T04:14:41.899Z,11.60
2022-10-23T04:17:08.843Z,11.74
2022-10-23T04:19:35.848Z,11.83
2022-10-23T04:22:02.729Z,12.15
2022-10-23T04:24:31.537Z,12.00
2022-10-23T04:27:03.097Z,12.25
2022-10-23T04:33:22.656Z,12.36
2022-10-23T04:35:55.881Z,12.67
2022-10-23T04:38:25.595Z,12.46
2022-10-23T04:40:52.568Z,12.26
2022-10-23T04:46:55.210Z,12.32
2022-10-23T04:49:22.350Z,12.36
2022-10-23T04:51:49.314Z,12.42
2022-10-23T04:54:17.466Z,12.42
2022-10-23T04:56:44.980Z,12.41
2022-10-23T04:59:11.988Z,12.51
2022-10-23T05:01:39.597Z,12.60
2022-10-23T05:04:06.609Z,12.24
2022-10-23T05:06:36.026Z,12.17
2022-10-23T05:09:03.878Z,12.09
2022-10-23T05:11:30.706Z,12.05
2022-10-23T05:13:57.475Z,11.88
2022-10-23T05:16:43.255Z,12.26
2022-10-23T05:19:13.607Z,12.26
2022-10-23T05:21:53.065Z,12.19
2022-10-23T05:27:56.364Z,12.21
2022-10-23T05:36:47.729Z,12.06
2022-10-23T05:39:17.037Z,11.98
2022-10-23T05:41:43.819Z,11.84
2022-10-23T05:44:10.684Z,11.70
2022-10-23T05:46:42.288Z,12.03
2022-10-23T05:49:09.533Z,11.87
2022-10-23T05:51:37.602Z,11.95
2022-10-23T05:54:06.885Z,11.99
2022-10-23T05:56:39.894Z,11.85
2022-10-23T05:59:07.896Z,12.00
2022-10-23T06:01:34.905Z,11.82
2022-10-23T06:04:01.944Z,12.04
2022-10-23T06:06:28.674Z,12.03
2022-10-23T06:08:55.530Z,11.75
2022-10-23T06:11:23.262Z,12.04
2022-10-23T06:13:49.998Z,12.05
2022-10-23T06:16:27.213Z,11.99
2022-10-23T06:18:54.508Z,11.84
2022-10-23T06:21:21.724Z,12.00
2022-10-23T06:23:48.752Z,11.86
2022-10-23T06:26:18.027Z,11.96
2022-10-23T06:28:45.353Z,11.84
2022-10-23T06:31:14.474Z,11.78
2022-10-23T06:33:41.876Z,11.96
2022-10-23T06:36:10.740Z,11.82
2022-10-23T06:38:40.568Z,11.87
2022-10-23T06:41:12.995Z,11.66
2022-10-23T06:43:39.788Z,11.78
2022-10-23T06:46:06.872Z,12.03
2022-10-23T06:48:33.773Z,12.10
2022-10-23T06:51:06.626Z,11.87
2022-10-23T06:53:33.680Z,12.05
2022-10-23T06:56:01.929Z,11.83
2022-10-23T06:58:29.064Z,11.97
2022-10-23T07:00:56.299Z,11.96
2022-10-23T07:03:23.310Z,11.81
2022-10-23T07:05:50.006Z,11.52
2022-10-23T07:08:16.761Z,11.88
2022-10-23T07:10:44.129Z,11.77
2022-10-23T07:13:15.812Z,11.94
2022-10-23T07:15:44.777Z,11.77
2022-10-23T07:18:17.909Z,11.86
2022-10-23T07:20:44.915Z,11.88
2022-10-23T10:42:47.530Z,15.67
2022-10-23T10:51:47.465Z,16.07
2022-10-23T11:00:35.153Z,15.35
2022-10-23T11:21:26.198Z,15.33
2022-10-23T12:24:59.683Z,14.56
2022-10-23T12:36:17.806Z,14.34
2022-10-23T13:08:48.071Z,15.16
2022-10-23T13:34:01.637Z,14.18
2022-10-23T18:08:42.820Z,13.02
2022-10-23T18:58:07.628Z,13.35
2022-10-23T19:00:34.405Z,13.17
2022-10-23T19:03:01.149Z,12.52
2022-10-23T19:05:30.576Z,13.34
2022-10-23T19:07:57.340Z,12.62
2022-10-23T19:10:28.172Z,13.23
2022-10-23T19:12:55.040Z,13.32
2022-10-23T19:15:22.040Z,13.38
2022-10-23T19:17:54.915Z,13.30
2022-10-23T19:20:22.582Z,13.11
2022-10-23T19:22:54.540Z,13.31
2022-10-23T19:25:37.867Z,13.24
2022-10-23T19:28:05.208Z,13.31
2022-10-23T19:30:33.240Z,13.44
2022-10-23T19:33:07.596Z,13.23
2022-10-23T19:35:36.622Z,13.41
2022-10-23T19:38:03.348Z,13.43
2022-10-23T19:40:34.192Z,13.30
2022-10-23T19:43:03.465Z,13.23
2022-10-23T19:47:56.784Z,13.58
2022-10-23T19:50:26.173Z,13.50
2022-10-23T19:52:55.952Z,13.21
2022-10-23T19:55:22.693Z,13.33
2022-10-23T19:57:51.647Z,13.45
2022-10-23T20:00:18.909Z,13.13
2022-10-23T20:02:45.692Z,13.39
2022-10-23T20:05:13.537Z,13.28
2022-10-23T20:07:40.263Z,13.41
2022-10-23T20:10:08.432Z,13.41
2022-10-23T20:12:35.160Z,13.21
2022-10-23T20:15:01.951Z,13.40
2022-10-23T20:17:28.682Z,13.46
2022-10-23T20:19:55.647Z,13.39
2022-10-23T20:22:24.295Z,13.51
2022-10-23T20:24:51.230Z,13.50
2022-10-23T20:27:18.825Z,13.61
2022-10-23T20:29:49.257Z,13.64
2022-10-23T20:32:16.909Z,13.29
2022-10-23T20:34:43.650Z,13.38
2022-10-23T20:40:05.716Z,13.26
2022-10-23T20:42:32.658Z,13.44
2022-10-23T20:44:59.443Z,13.51
2022-10-23T20:47:26.202Z,13.41
2022-10-23T20:49:52.884Z,13.50
2022-10-23T20:52:22.149Z,13.45
2022-10-23T20:54:49.014Z,13.34
2022-10-23T20:57:19.146Z,13.51
2022-10-23T20:59:48.029Z,13.81
2022-10-23T21:02:14.897Z,13.59
2022-10-23T21:04:41.719Z,13.65
2022-10-23T21:07:10.321Z,13.39
2022-10-23T21:09:38.610Z,13.80
2022-10-23T21:12:06.816Z,13.58
2022-10-23T21:14:34.471Z,13.59
2022-10-23T21:17:01.346Z,13.48
2022-10-23T21:19:28.247Z,13.62
2022-10-23T21:21:55.789Z,13.80
2022-10-23T21:24:22.653Z,13.58
2022-10-23T21:26:49.600Z,13.68
2022-10-23T21:29:19.003Z,13.73
2022-10-23T21:31:52.174Z,13.93
2022-10-23T21:34:19.090Z,13.66
2022-10-23T21:37:11.442Z,13.79
2022-10-23T21:39:34.529Z,13.62
2022-10-23T21:42:01.543Z,13.85
2022-10-23T21:44:28.360Z,13.61
2022-10-23T21:46:57.909Z,13.63
2022-10-23T21:49:25.008Z,13.61
2022-10-23T21:51:55.230Z,13.28
2022-10-23T21:54:22.828Z,13.54
2022-10-23T21:56:53.957Z,13.64
2022-10-23T21:59:24.810Z,13.71
2022-10-23T22:01:53.307Z,13.47
2022-10-23T22:04:22.988Z,13.61
2022-10-23T22:12:20.193Z,13.36
2022-10-23T22:14:51.598Z,12.90
2022-10-23T22:17:23.199Z,13.03
2022-10-23T22:19:52.277Z,12.91
2022-10-23T22:22:18.951Z,13.45
2022-10-23T22:24:45.669Z,13.46
2022-10-23T22:27:12.384Z,13.43
2022-10-23T22:29:39.091Z,13.34
2022-10-23T22:32:05.861Z,13.63
2022-10-23T22:34:52.743Z,13.36
2022-10-23T22:37:20.033Z,13.43
2022-10-23T22:39:50.864Z,13.55
2022-10-23T22:42:20.135Z,13.36
2022-10-23T22:44:46.897Z,13.42
2022-10-23T22:47:13.741Z,13.34
2022-10-23T22:49:40.499Z,13.50
2022-10-23T22:52:07.207Z,13.44
2022-10-23T22:54:34.136Z,13.50
2022-10-23T22:57:00.945Z,13.38
2022-10-23T22:59:27.715Z,13.59
2022-10-23T23:01:54.858Z,13.54
2022-10-23T23:04:38.344Z,13.64
2022-10-23T23:07:11.339Z,13.74
2022-10-23T23:09:42.891Z,13.49
2022-10-23T23:12:11.553Z,13.71
2022-10-23T23:14:39.047Z,13.52
2022-10-23T23:17:07.082Z,13.63
2022-10-23T23:19:34.409Z,13.67
2022-10-23T23:22:01.426Z,13.41
2022-10-23T23:24:28.278Z,13.53
2022-10-23T23:26:54.976Z,13.47
2022-10-23T23:29:22.404Z,13.46
2022-10-23T23:31:49.132Z,13.48
2022-10-23T23:34:15.874Z,13.50
2022-10-23T23:36:42.719Z,13.73
2022-10-23T23:39:10.342Z,13.41
2022-10-23T23:41:37.840Z,13.59
2022-10-23T23:44:04.784Z,13.52
2022-10-23T23:46:31.486Z,13.67
2022-10-23T23:48:58.201Z,13.46
2022-10-23T23:51:25.856Z,13.80
2022-10-23T23:53:53.239Z,13.62
2022-10-23T23:56:20.978Z,13.74
2022-10-23T23:58:47.729Z,13.35
